Time;durP1;ratioP1;P1;durP2;ratioP2;P2;SDS_P1;SDS_P2;PMS_P1;PMS_P2;Temp;Humidity;BMP_temperature;BMP_pressure;BME280_temperature;BME280_humidity;BME280_pressure;Samples;Min_cycle;Max_cycle;Signal;HPM_P1;HPM_P2
2022/11/02 00:01:20;;;;;;;;;;;;;;;-144.99;73.02;52456.25;5094733;28;19960;-76
2022/11/02 00:03:46;;;;;;;;;;;;;;;-144.99;73.24;52444.03;5091650;28;19969;-77
2022/11/02 00:06:12;;;;;;;;;;;;;;;-144.99;73.03;52439.94;5087903;28;19942;-76
2022/11/02 00:08:39;;;;;;;;;;;;;;;-144.99;73.36;52431.78;5088029;28;19935;-75
2022/11/02 00:11:06;;;;;;;;;;;;;;;-144.99;73.77;52464.41;5108915;28;19947;-76
2022/11/02 00:13:32;;;;;;;;;;;;;;;-144.99;73.73;52395.09;5092326;28;19996;-76
2022/11/02 00:16:01;;;;;;;;;;;;;;;-144.99;73.78;52448.09;5089833;28;19967;-73
2022/11/02 00:18:29;;;;;;;;;;;;;;;-144.99;73.62;52395.09;5085870;28;20272;-75
2022/11/02 00:20:55;;;;;;;;;;;;;;;-144.99;74.26;52444.03;5089711;28;20048;-75
2022/11/02 00:23:22;;;;;;;;;;;;;;;-144.99;73.75;52452.16;5087535;28;19954;-76
2022/11/02 00:25:49;;;;;;;;;;;;;;;-144.99;73.38;52476.63;5085294;28;20405;-74
2022/11/02 00:28:16;;;;;;;;;;;;;;;-144.99;73.89;52452.16;5083145;28;19940;-76
2022/11/02 00:30:43;;;;;;;;;;;;;;;-144.99;74.16;52452.16;5080543;28;19935;-72
2022/11/02 00:33:09;;;;;;;;;;;;;;;-144.99;73.70;52460.31;5086007;28;19944;-74
2022/11/02 00:35:37;;;;;;;;;;;;;;;-144.99;73.61;52456.25;5084922;28;19947;-74
2022/11/02 00:38:04;;;;;;;;;;;;;;;-144.99;73.94;52448.09;5084636;28;20037;-74
2022/11/02 00:40:31;;;;;;;;;;;;;;;-144.99;73.42;52456.25;5093804;28;20004;-74
2022/11/02 00:42:57;;;;;;;;;;;;;;;-144.99;73.52;52460.31;5077639;28;20031;-72
2022/11/02 00:45:24;;;;;;;;;;;;;;;-144.99;73.64;52468.47;5078156;28;20182;-71
2022/11/02 00:47:50;;;;;;;;;;;;;;;-144.99;73.13;52419.56;5083559;28;19938;-73
2022/11/02 00:50:17;;;;;;;;;;;;;;;-144.99;73.63;52452.16;5085669;28;20432;-74
2022/11/02 00:52:44;;;;;;;;;;;;;;;-144.99;73.34;52468.47;5077932;28;20422;-74
2022/11/02 00:55:11;;;;;;;;;;;;;;;-144.99;72.94;52439.94;5076576;28;19988;-75
2022/11/02 00:57:38;;;;;;;;;;;;;;;-144.99;73.56;52431.78;5081704;28;19940;-73
2022/11/02 01:00:05;;;;;;;;;;;;;;;-144.99;73.34;52386.94;5088597;28;20057;-73
2022/11/02 01:02:32;;;;;;;;;;;;;;;-144.99;73.40;52452.16;5086491;28;19946;-73
2022/11/02 01:04:58;;;;;;;;;;;;;;;-144.99;73.56;52429.75;5099238;28;20025;-74
2022/11/02 01:07:25;;;;;;;;;;;;;;;-144.99;73.79;52464.41;5109441;28;19952;-76
2022/11/02 01:09:52;;;;;;;;;;;;;;;-144.99;73.25;52480.72;5096894;28;19986;-75
2022/11/02 01:12:19;;;;;;;;;;;;;;;-144.99;73.63;52427.72;5084409;28;20433;-73
2022/11/02 01:14:45;;;;;;;;;;;;;;;-144.99;73.82;52448.09;5082169;28;19959;-74
2022/11/02 01:17:12;;;;;;;;;;;;;;;-144.99;73.31;52425.66;5088066;28;20017;-73
2022/11/02 01:19:38;;;;;;;;;;;;;;;-144.99;73.83;52409.38;5088241;28;19966;-74
2022/11/02 01:22:05;;;;;;;;;;;;;;;-144.99;73.96;52419.56;5079832;28;19960;-73
2022/11/02 01:24:31;;;;;;;;;;;;;;;-144.99;73.91;52437.91;5079921;28;19960;-74
2022/11/02 01:26:59;;;;;;;;;;;;;;;-144.99;74.54;52444.03;5080253;28;20057;-75
2022/11/02 01:29:25;;;;;;;;;;;;;;;-144.99;74.24;52439.94;5084696;28;20195;-73
2022/11/02 01:31:52;;;;;;;;;;;;;;;-144.99;74.16;52439.94;5086401;28;19938;-73
2022/11/02 01:34:19;;;;;;;;;;;;;;;-144.99;74.87;52423.63;5084612;28;19970;-73
2022/11/02 01:36:45;;;;;;;;;;;;;;;-144.99;74.86;52439.94;5080971;28;20336;-75
2022/11/02 01:39:12;;;;;;;;;;;;;;;-144.99;75.05;52452.16;5083319;28;19940;-74
2022/11/02 01:41:39;;;;;;;;;;;;;;;-144.99;75.24;52415.47;5082993;28;19958;-73
2022/11/02 01:44:25;;;;;;;;;;;;;;;-144.99;75.42;52448.09;5082967;28;20455;-74
2022/11/02 01:46:53;;;;;;;;;;;;;;;-144.99;75.47;52456.25;5089381;28;20334;-73
2022/11/02 01:49:21;;;;;;;;;;;;;;;-144.99;75.28;52480.72;5085460;28;20315;-75
2022/11/02 01:51:51;;;;;;;;;;;;;;;-144.99;75.04;52435.88;5084603;28;19947;-74
2022/11/02 01:54:20;;;;;;;;;;;;;;;-144.99;75.17;52456.25;5086415;28;20433;-74
2022/11/02 01:56:49;;;;;;;;;;;;;;;-144.99;75.33;52427.72;5090413;28;20407;-76
2022/11/02 01:59:18;;;;;;;;;;;;;;;-144.99;75.37;52472.56;5088952;28;19945;-75
2022/11/02 02:01:44;;;;;;;;;;;;;;;-144.99;74.44;52450.13;5095486;28;20021;-75
2022/11/02 02:04:11;;;;;;;;;;;;;;;-144.99;74.98;52419.56;5112628;28;19943;-76
2022/11/02 02:06:38;;;;;;;;;;;;;;;-144.99;74.64;52472.56;5094204;28;20510;-75
2022/11/02 02:09:05;;;;;;;;;;;;;;;-144.99;75.08;52407.31;5086546;28;19963;-75
2022/11/02 02:11:33;;;;;;;;;;;;;;;-144.99;75.06;52439.94;5080016;28;20029;-76
2022/11/02 02:14:01;;;;;;;;;;;;;;;-144.99;75.65;52386.94;5082281;28;19932;-76
2022/11/02 02:16:37;;;;;;;;;;;;;;;-144.99;76.29;52468.47;5083453;28;19995;-76
2022/11/02 02:19:09;;;;;;;;;;;;;;;-144.99;76.34;52431.78;5082570;28;19944;-75
2022/11/02 02:21:42;;;;;;;;;;;;;;;-144.99;76.31;52431.78;5083027;28;19961;-75
2022/11/02 02:24:22;;;;;;;;;;;;;;;-144.99;76.92;52431.78;5079758;28;19965;-76
2022/11/02 02:27:02;;;;;;;;;;;;;;;-144.99;78.35;52460.31;5088891;28;20026;-76
2022/11/02 02:29:33;;;;;;;;;;;;;;;-144.99;79.72;52476.63;5083906;28;19938;-76
2022/11/02 02:32:04;;;;;;;;;;;;;;;-144.99;81.02;52476.63;5087554;28;19979;-76
2022/11/02 02:34:34;;;;;;;;;;;;;;;-144.99;83.88;52452.16;5077117;28;20013;-76
2022/11/02 02:37:05;;;;;;;;;;;;;;;-144.99;85.84;52411.41;5081174;28;20444;-72
2022/11/02 02:39:44;;;;;;;;;;;;;;;-144.99;86.54;52409.38;5086308;28;20339;-72
2022/11/02 02:42:13;;;;;;;;;;;;;;;-144.99;86.95;52429.75;5088102;28;20056;-75
2022/11/02 02:44:42;;;;;;;;;;;;;;;-144.99;87.25;52407.31;5087329;28;20044;-74
2022/11/02 02:47:11;;;;;;;;;;;;;;;-144.99;87.24;52448.09;5092389;28;19946;-75
2022/11/02 02:49:39;;;;;;;;;;;;;;;-144.99;87.26;52452.16;5090545;28;20042;-73
2022/11/02 02:52:05;;;;;;;;;;;;;;;-144.99;87.01;52452.16;5087730;28;19951;-72
2022/11/02 02:54:35;;;;;;;;;;;;;;;-144.99;87.00;52462.34;5078371;28;20491;-73
2022/11/02 02:57:06;;;;;;;;;;;;;;;-144.99;87.28;52423.63;5091166;28;19990;-73
2022/11/02 02:59:36;;;;;;;;;;;;;;;-144.99;86.64;52411.41;5113367;28;19941;-71
2022/11/02 03:02:07;;;;;;;;;;;;;;;-144.99;86.23;52452.16;5096512;28;19956;-73
2022/11/02 03:04:34;;;;;;;;;;;;;;;-144.99;85.26;52419.56;5085394;28;20046;-73
2022/11/02 03:07:01;;;;;;;;;;;;;;;-144.99;84.94;52480.72;5091231;28;19947;-71
2022/11/02 03:09:32;;;;;;;;;;;;;;;-144.99;84.71;52427.72;5091447;28;20004;-73
2022/11/02 03:12:04;;;;;;;;;;;;;;;-144.99;85.17;52444.03;5088340;28;20385;-74
2022/11/02 03:14:36;;;;;;;;;;;;;;;-144.99;84.19;52454.22;5078427;28;20056;-74
2022/11/02 03:17:08;;;;;;;;;;;;;;;-144.99;83.33;52411.41;5091202;28;19950;-74
2022/11/02 03:19:40;;;;;;;;;;;;;;;-144.99;82.87;52431.78;5092288;28;20188;-74
2022/11/02 03:22:09;;;;;;;;;;;;;;;-144.99;82.49;52462.34;5085296;28;20015;-74
2022/11/02 03:24:37;;;;;;;;;;;;;;;-144.99;82.32;52468.47;5080424;28;19954;-75
2022/11/02 03:27:09;;;;;;;;;;;;;;;-144.99;81.87;52431.78;5078012;28;20022;-76
2022/11/02 03:29:38;;;;;;;;;;;;;;;-144.99;82.42;52427.72;5092171;28;19985;-73
2022/11/02 03:32:07;;;;;;;;;;;;;;;-144.99;81.63;52460.31;5081656;28;19960;-75
2022/11/02 03:34:36;;;;;;;;;;;;;;;-144.99;81.22;52464.41;5092174;28;19957;-74
2022/11/02 03:37:09;;;;;;;;;;;;;;;-144.99;81.77;52480.72;5090465;28;19948;-73
2022/11/02 03:39:38;;;;;;;;;;;;;;;-144.99;80.98;52433.81;5098391;28;20047;-76
2022/11/02 03:42:05;;;;;;;;;;;;;;;-144.99;80.93;52407.31;5093720;28;19957;-74
2022/11/02 03:44:33;;;;;;;;;;;;;;;-144.99;81.12;52415.47;5098384;28;20348;-74
2022/11/02 03:47:01;;;;;;;;;;;;;;;-144.99;81.75;52460.31;5085676;28;20298;-72
2022/11/02 03:49:28;;;;;;;;;;;;;;;-144.99;81.60;52464.41;5086235;28;20415;-74
2022/11/02 03:51:56;;;;;;;;;;;;;;;-144.99;81.19;52423.63;5089593;28;19943;-73
2022/11/02 03:54:27;;;;;;;;;;;;;;;-144.99;80.91;52354.34;5106106;28;20027;-72
2022/11/02 03:56:56;;;;;;;;;;;;;;;-144.99;81.18;52415.47;5104838;28;19975;-74
2022/11/02 03:59:23;;;;;;;;;;;;;;;-144.99;81.02;52409.38;5090307;28;19944;-72
2022/11/02 04:01:51;;;;;;;;;;;;;;;-144.99;81.36;52448.09;5089134;28;20051;-70
2022/11/02 04:04:18;;;;;;;;;;;;;;;-144.99;81.46;52468.47;5080119;28;19955;-73
2022/11/02 04:06:46;;;;;;;;;;;;;;;-144.99;80.70;52419.56;5086951;28;20025;-73
2022/11/02 04:09:12;;;;;;;;;;;;;;;-144.99;81.05;52433.81;5089091;28;19954;-74
2022/11/02 04:14:39;;;;;;;;;;;;;;;-144.99;81.35;52419.56;5091673;22;19969;-76
2022/11/02 04:19:50;;;;;;;;;;;;;;;-144.99;81.77;52415.47;5043007;28;19987;-77
2022/11/02 04:25:17;;;;;;;;;;;;;;;-144.99;81.54;52452.16;5047957;28;19966;-76
2022/11/02 04:27:46;;;;;;;;;;;;;;;-144.99;81.84;52448.09;5059109;28;19939;-78
2022/11/02 04:30:13;;;;;;;;;;;;;;;-144.99;81.41;52454.22;5068771;28;19945;-76
2022/11/02 04:35:23;;;;;;;;;;;;;;;-144.99;81.51;52417.53;5070919;28;19994;-76
2022/11/02 04:40:34;;;;;;;;;;;;;;;-144.99;83.20;52472.56;5055545;28;19954;-75
2022/11/02 04:43:01;;;;;;;;;;;;;;;-144.99;83.50;52441.97;5042137;28;20006;-74
2022/11/02 04:45:28;;;;;;;;;;;;;;;-144.99;83.89;52419.56;5036841;28;19956;-76
2022/11/02 04:47:59;;;;;;;;;;;;;;;-144.99;83.43;52407.31;5045072;28;19939;-74
2022/11/02 04:50:25;;;;;;;;;;;;;;;-144.99;84.30;52427.72;5052797;28;19957;-74
2022/11/02 04:52:55;;;;;;;;;;;;;;;-144.99;85.00;52427.72;5056740;28;20495;-75
2022/11/02 04:55:21;;;;;;;;;;;;;;;-144.99;85.09;52439.94;5050977;28;20020;-78
2022/11/02 04:57:47;;;;;;;;;;;;;;;-144.99;84.73;52423.63;5060851;28;19940;-74
2022/11/02 05:00:16;;;;;;;;;;;;;;;-144.99;84.15;52378.78;5069891;28;19950;-75
2022/11/02 05:02:43;;;;;;;;;;;;;;;-144.99;84.14;52458.28;5066328;28;20071;-76
2022/11/02 05:05:11;;;;;;;;;;;;;;;-144.99;84.30;52452.16;5065265;28;19967;-77
2022/11/02 05:07:37;;;;;;;;;;;;;;;-144.99;84.06;52423.63;5068829;28;19972;-77
2022/11/02 05:10:04;;;;;;;;;;;;;;;-144.99;83.73;52425.66;5069819;28;19986;-76
2022/11/02 05:12:31;;;;;;;;;;;;;;;-144.99;83.98;52407.31;5064550;28;19954;-76
2022/11/02 05:14:57;;;;;;;;;;;;;;;-144.99;84.23;52464.41;5061863;28;20002;-76
2022/11/02 05:17:25;;;;;;;;;;;;;;;-144.99;84.06;52446.06;5071291;28;20033;-76
2022/11/02 05:19:51;;;;;;;;;;;;;;;-144.99;83.73;52407.31;5071934;28;19989;-75
2022/11/02 05:22:18;;;;;;;;;;;;;;;-144.99;84.20;52407.31;5069557;28;19971;-75
2022/11/02 05:24:44;;;;;;;;;;;;;;;-144.99;83.92;52435.88;5060496;28;19953;-75
2022/11/02 05:27:10;;;;;;;;;;;;;;;-144.99;84.49;52407.31;5058983;28;19941;-75
2022/11/02 05:29:37;;;;;;;;;;;;;;;-144.99;85.07;52427.72;5069470;28;19947;-75
2022/11/02 05:32:04;;;;;;;;;;;;;;;-144.99;84.31;52399.19;5062249;28;19965;-75
2022/11/02 05:34:32;;;;;;;;;;;;;;;-144.99;84.53;52380.84;5061147;28;19952;-76
2022/11/02 05:36:58;;;;;;;;;;;;;;;-144.99;85.62;52395.09;5067855;28;20337;-75
2022/11/02 05:39:25;;;;;;;;;;;;;;;-144.99;86.44;52435.88;5071724;28;19948;-76
2022/11/02 05:41:51;;;;;;;;;;;;;;;-144.99;86.69;52425.66;5067928;28;19960;-76
2022/11/02 05:44:17;;;;;;;;;;;;;;;-144.99;88.88;52415.47;5062474;28;20464;-75
2022/11/02 05:46:44;;;;;;;;;;;;;;;-144.99;87.25;52399.19;5074331;28;19965;-76
2022/11/02 05:49:10;;;;;;;;;;;;;;;-144.99;87.16;52423.63;5074560;28;19970;-76
2022/11/02 05:51:38;;;;;;;;;;;;;;;-144.99;87.91;52421.59;5085556;28;20023;-78
2022/11/02 05:54:04;;;;;;;;;;;;;;;-144.99;87.92;52427.72;5073794;28;20038;-77
2022/11/02 05:56:31;;;;;;;;;;;;;;;-144.99;88.13;52411.41;5078729;28;20023;-76
2022/11/02 05:58:57;;;;;;;;;;;;;;;-144.99;86.98;52444.03;5068995;28;19940;-77
2022/11/02 06:01:23;;;;;;;;;;;;;;;-144.99;87.05;52431.78;5067390;28;20511;-76
2022/11/02 06:03:50;;;;;;;;;;;;;;;-144.99;86.45;52452.16;5054153;28;19968;-76
2022/11/02 06:06:16;;;;;;;;;;;;;;;-144.99;85.37;52407.31;5063567;28;19955;-75
2022/11/02 06:08:44;;;;;;;;;;;;;;;-144.99;85.08;52413.44;4364553;28;9999705;-74
2022/11/02 06:11:12;;;;;;;;;;;;;;;-144.99;85.59;52427.72;5052692;28;20045;-75
2022/11/02 06:13:38;;;;;;;;;;;;;;;-144.99;86.37;52456.25;5057839;28;19941;-75
2022/11/02 06:16:06;;;;;;;;;;;;;;;-144.99;85.87;52452.16;5062323;28;19969;-75
2022/11/02 06:18:33;;;;;;;;;;;;;;;-144.99;86.34;52403.25;5059734;28;19944;-77
2022/11/02 06:20:59;;;;;;;;;;;;;;;-144.99;86.73;52444.03;5059522;28;20381;-77
2022/11/02 06:23:26;;;;;;;;;;;;;;;-144.99;86.26;52446.06;5062217;28;19967;-78
2022/11/02 06:25:55;;;;;;;;;;;;;;;-144.99;86.26;52415.47;5071059;28;20041;-77
2022/11/02 06:28:21;;;;;;;;;;;;;;;-144.99;86.38;52444.03;5074883;28;19946;-76
2022/11/02 06:30:48;;;;;;;;;;;;;;;-144.99;86.41;52403.25;5072618;28;19972;-77
2022/11/02 06:33:15;;;;;;;;;;;;;;;-144.99;86.44;52448.09;5067532;28;20142;-76
2022/11/02 06:35:44;;;;;;;;;;;;;;;-144.99;86.62;52427.72;5062113;28;20446;-76
2022/11/02 06:38:10;;;;;;;;;;;;;;;-144.99;87.06;52423.63;5070933;28;20049;-76
2022/11/02 06:40:37;;;;;;;;;;;;;;;-144.99;87.33;52366.56;5064431;28;20454;-77
2022/11/02 06:43:04;;;;;;;;;;;;;;;-144.99;87.81;52431.78;5075499;28;20004;-76
2022/11/02 06:45:31;;;;;;;;;;;;;;;-144.99;87.82;52403.25;5066470;28;19966;-77
2022/11/02 06:47:57;;;;;;;;;;;;;;;-144.99;87.67;52423.63;5069755;28;19944;-77
2022/11/02 06:50:24;;;;;;;;;;;;;;;-144.99;87.13;52407.31;5059555;28;19942;-76
2022/11/02 06:52:51;;;;;;;;;;;;;;;-144.99;86.44;52419.56;5059718;28;19939;-76
2022/11/02 06:55:18;;;;;;;;;;;;;;;-144.99;86.81;52431.78;5067551;28;20458;-77
2022/11/02 06:57:44;;;;;;;;;;;;;;;-144.99;86.05;52407.31;5064005;28;19946;-75
2022/11/02 07:00:16;;;;;;;;;;;;;;;-144.99;85.35;52427.72;5068106;28;20515;-77
2022/11/02 07:02:42;;;;;;;;;;;;;;;-144.99;85.63;52407.31;5066660;28;19965;-77
2022/11/02 07:05:09;;;;;;;;;;;;;;;-144.99;85.89;52419.56;5067744;28;19962;-77
2022/11/02 07:07:35;;;;;;;;;;;;;;;-144.99;86.69;52423.63;5065461;28;19934;-76
2022/11/02 07:10:02;;;;;;;;;;;;;;;-144.99;86.96;52439.94;5068062;28;19949;-77
2022/11/02 07:12:28;;;;;;;;;;;;;;;-144.99;87.42;52415.47;5057073;28;20058;-77
2022/11/02 07:14:54;;;;;;;;;;;;;;;-144.99;86.80;52411.41;5061624;28;19975;-77
2022/11/02 07:17:22;;;;;;;;;;;;;;;-144.99;87.63;52382.88;5061148;28;19995;-77
2022/11/02 07:19:48;;;;;;;;;;;;;;;-144.99;87.93;52468.47;5071263;28;20227;-76
2022/11/02 07:22:15;;;;;;;;;;;;;;;-144.99;87.98;52429.75;5062644;28;20078;-76
2022/11/02 07:24:41;;;;;;;;;;;;;;;-144.99;87.95;52395.09;5057747;28;19934;-75
2022/11/02 07:27:08;;;;;;;;;;;;;;;-144.99;88.22;52415.47;5066094;28;20482;-75
2022/11/02 07:29:34;;;;;;;;;;;;;;;-144.99;88.76;52384.91;5067551;28;19938;-77
2022/11/02 07:32:02;;;;;;;;;;;;;;;-144.99;87.18;52391.03;5066421;28;19977;-74
2022/11/02 07:34:29;;;;;;;;;;;;;;;-144.99;87.10;52397.13;5067434;28;19967;-76
2022/11/02 07:36:56;;;;;;;;;;;;;;;-144.99;87.46;52399.19;5066964;28;19957;-76
2022/11/02 07:39:23;;;;;;;;;;;;;;;-144.99;86.90;52411.41;5070520;28;20853;-78
2022/11/02 07:41:49;;;;;;;;;;;;;;;-144.99;86.01;52448.09;5066903;28;19939;-77
2022/11/02 07:44:16;;;;;;;;;;;;;;;-144.99;85.29;52431.78;5079246;28;20043;-77
2022/11/02 07:46:42;;;;;;;;;;;;;;;-144.99;84.64;52395.09;4719621;28;10000401;-76
2022/11/02 07:49:08;;;;;;;;;;;;;;;-144.99;84.18;52415.47;5067864;28;20201;-76
2022/11/02 07:51:38;;;;;;;;;;;;;;;-144.99;82.75;52427.72;5064117;28;20332;-76
2022/11/02 07:54:04;;;;;;;;;;;;;;;-144.99;81.83;52407.31;5063614;28;20000;-76
2022/11/02 07:56:31;;;;;;;;;;;;;;;-144.99;81.21;52395.09;5063346;28;20020;-74
2022/11/02 07:58:57;;;;;;;;;;;;;;;-144.99;79.60;52431.78;5067828;28;20106;-75
2022/11/02 08:01:23;;;;;;;;;;;;;;;-144.99;78.63;52407.31;5079962;28;19959;-75
2022/11/02 08:03:50;;;;;;;;;;;;;;;-144.99;78.64;52397.13;5064912;28;19955;-74
2022/11/02 08:06:16;;;;;;;;;;;;;;;-144.99;79.19;52395.09;5063652;28;19970;-74
2022/11/02 08:08:44;;;;;;;;;;;;;;;-144.99;79.48;52378.78;5065903;28;19955;-74
2022/11/02 08:11:10;;;;;;;;;;;;;;;-144.99;79.27;52427.72;5067708;28;20048;-75
2022/11/02 08:13:37;;;;;;;;;;;;;;;-144.99;79.02;52374.72;5058882;28;20032;-75
2022/11/02 08:16:04;;;;;;;;;;;;;;;-144.99;78.64;52399.19;5062279;28;19955;-75
2022/11/02 08:18:31;;;;;;;;;;;;;;;-144.99;78.37;52391.03;5061534;28;19965;-76
2022/11/02 08:20:58;;;;;;;;;;;;;;;-144.99;78.41;52423.63;5069386;28;20158;-74
2022/11/02 08:23:25;;;;;;;;;;;;;;;-144.99;77.77;52399.19;5062214;28;19966;-74
2022/11/02 08:25:54;;;;;;;;;;;;;;;-144.99;77.13;52407.31;5070850;28;20212;-74
2022/11/02 08:28:22;;;;;;;;;;;;;;;-144.99;76.34;52366.56;5068986;28;19945;-76
2022/11/02 08:30:48;;;;;;;;;;;;;;;-144.99;75.25;52382.88;5059737;28;20039;-74
2022/11/02 08:33:16;;;;;;;;;;;;;;;-144.99;74.31;52386.94;5070527;28;20424;-76
2022/11/02 08:35:43;;;;;;;;;;;;;;;-144.99;73.48;52378.78;5060297;28;20334;-75
2022/11/02 08:38:10;;;;;;;;;;;;;;;-144.99;73.43;52374.72;5053772;28;19959;-75
2022/11/02 08:40:37;;;;;;;;;;;;;;;-144.99;74.37;52403.25;5055503;28;20063;-75
2022/11/02 08:43:05;;;;;;;;;;;;;;;-144.99;74.73;52419.56;5063610;28;19964;-75
2022/11/02 08:45:33;;;;;;;;;;;;;;;-144.99;74.91;52411.41;5064183;28;19962;-75
2022/11/02 08:47:59;;;;;;;;;;;;;;;-144.99;75.39;52407.31;5051098;28;20442;-75
2022/11/02 08:50:26;;;;;;;;;;;;;;;-144.99;75.26;52413.44;5062064;28;19942;-76
2022/11/02 08:52:52;;;;;;;;;;;;;;;-144.99;75.05;52427.72;5067808;28;19938;-76
2022/11/02 08:55:19;;;;;;;;;;;;;;;-144.99;74.95;52415.47;5058782;28;19966;-76
2022/11/02 08:57:45;;;;;;;;;;;;;;;-144.99;75.28;52421.59;5056185;28;20019;-77
2022/11/02 09:00:14;;;;;;;;;;;;;;;-144.99;75.05;52407.31;5066736;28;20331;-76
2022/11/02 09:02:40;;;;;;;;;;;;;;;-144.99;74.66;52378.78;5065299;28;19954;-76
2022/11/02 09:05:07;;;;;;;;;;;;;;;-144.99;74.45;52431.78;5068493;28;20134;-75
2022/11/02 09:07:34;;;;;;;;;;;;;;;-144.99;74.57;52403.25;5051223;28;20378;-76
2022/11/02 09:10:00;;;;;;;;;;;;;;;-144.99;74.55;52376.75;5065455;28;19946;-76
2022/11/02 09:12:27;;;;;;;;;;;;;;;-144.99;74.80;52415.47;5063531;28;20071;-76
2022/11/02 09:14:53;;;;;;;;;;;;;;;-144.99;74.67;52435.88;5065363;28;20066;-76
2022/11/02 09:17:21;;;;;;;;;;;;;;;-144.99;74.81;52439.94;5062315;28;20089;-75
2022/11/02 09:19:47;;;;;;;;;;;;;;;-144.99;74.68;52391.03;5065293;28;19942;-75
2022/11/02 09:22:14;;;;;;;;;;;;;;;-144.99;74.30;52415.47;5063364;28;20071;-76
2022/11/02 09:24:40;;;;;;;;;;;;;;;-144.99;74.53;52415.47;5064902;28;19964;-76
2022/11/02 09:27:06;;;;;;;;;;;;;;;-144.99;74.39;52411.41;5065229;28;19942;-76
2022/11/02 09:29:33;;;;;;;;;;;;;;;-144.99;73.93;52407.31;5065290;28;19948;-77
2022/11/02 09:31:59;;;;;;;;;;;;;;;-144.99;73.71;52452.16;5064071;28;20010;-76
2022/11/02 09:34:27;;;;;;;;;;;;;;;-144.99;73.43;52378.78;5068874;28;20255;-76
2022/11/02 09:36:53;;;;;;;;;;;;;;;-144.99;73.64;52388.97;5059256;28;20025;-76
2022/11/02 09:39:23;;;;;;;;;;;;;;;-144.99;73.97;52446.06;5065847;28;20372;-76
2022/11/02 09:41:58;;;;;;;;;;;;;;;-144.99;74.13;52399.19;5066215;28;19958;-74
2022/11/02 09:44:28;;;;;;;;;;;;;;;-144.99;74.78;52374.72;5060856;28;19962;-76
2022/11/02 09:46:55;;;;;;;;;;;;;;;-144.99;74.89;52423.63;5060919;28;20397;-77
2022/11/02 09:49:23;;;;;;;;;;;;;;;-144.99;77.74;52407.31;5067072;28;19947;-75
2022/11/02 09:51:52;;;;;;;;;;;;;;;-144.99;78.01;52374.72;5064769;28;19971;-75
2022/11/02 09:54:19;;;;;;;;;;;;;;;-144.99;77.16;52386.94;5065494;28;19990;-75
2022/11/02 09:56:46;;;;;;;;;;;;;;;-144.99;75.33;52342.09;5069859;28;20391;-76
2022/11/02 09:59:14;;;;;;;;;;;;;;;-144.99;73.44;52362.50;5056610;28;19947;-76
2022/11/02 10:01:54;;;;;;;;;;;;;;;-144.99;72.19;52413.44;5063424;28;19948;-75
2022/11/02 10:04:29;;;;;;;;;;;;;;;-144.99;71.66;52382.88;5061928;28;19976;-76
2022/11/02 10:07:02;;;;;;;;;;;;;;;-144.99;70.91;52427.72;5080389;28;20047;-76
2022/11/02 10:09:35;;;;;;;;;;;;;;;-144.99;70.80;52415.47;5074737;28;20049;-77
2022/11/02 10:12:06;;;;;;;;;;;;;;;-144.99;70.98;52368.59;5072719;28;19980;-75
2022/11/02 10:14:34;;;;;;;;;;;;;;;-144.99;70.69;52395.09;5097668;22;19994;-76
2022/11/02 10:17:04;;;;;;;;;;;;;;;-144.99;71.22;52415.47;5089531;28;19962;-75
2022/11/02 10:19:33;;;;;;;;;;;;;;;-144.99;71.74;52399.19;5086672;28;19974;-75
2022/11/02 10:22:01;;;;;;;;;;;;;;;-144.99;70.12;52252.44;5073749;28;20026;-77
2022/11/02 10:24:31;;;;;;;;;;;;;;;-144.99;64.56;52236.13;5075162;28;19978;-75
2022/11/02 10:26:59;;;;;;;;;;;;;;;-144.99;60.07;52232.03;5074482;28;19928;-76
2022/11/02 10:29:39;;;;;;;;;;;;;;;-144.99;59.62;52223.88;5073101;28;19955;-76
2022/11/02 10:32:08;;;;;;;;;;;;;;;-144.99;58.27;52172.94;5090195;28;20049;-76
2022/11/02 10:34:35;;;;;;;;;;;;;;;-144.99;58.79;52342.09;5082162;28;19960;-76
2022/11/02 10:37:11;;;;;;;;;;;;;;;-144.99;59.01;52199.44;5071548;28;19960;-76
2022/11/02 10:39:44;;;;;;;;;;;;;;;-144.99;57.70;52329.88;5070092;28;19951;-77
2022/11/02 10:42:24;;;;;;;;;;;;;;;-144.99;61.40;52415.47;5071801;28;20359;-77
2022/11/02 10:45:00;;;;;;;;;;;;;;;-144.99;62.75;52391.03;5066964;28;20192;-76
2022/11/02 10:47:28;;;;;;;;;;;;;;;-144.99;65.31;52427.72;5070850;28;20331;-78
2022/11/02 10:50:04;;;;;;;;;;;;;;;-144.99;69.55;52366.56;5071290;28;19951;-75
2022/11/02 10:52:35;;;;;;;;;;;;;;;-144.99;71.08;52409.38;5087318;27;19924;-78
2022/11/02 10:55:02;;;;;;;;;;;;;;;-144.99;71.97;52352.28;5080148;28;19981;-78
2022/11/02 10:57:28;;;;;;;;;;;;;;;-144.99;70.24;52391.03;5064800;28;19959;-76
2022/11/02 11:00:13;;;;;;;;;;;;;;;-144.99;67.76;52342.09;5068365;28;19947;-76
2022/11/02 11:02:40;;;;;;;;;;;;;;;-144.99;65.73;52376.75;5066661;28;19939;-78
2022/11/02 11:05:12;;;;;;;;;;;;;;;-144.99;67.23;52374.72;5072751;28;19934;-77
2022/11/02 11:07:43;;;;;;;;;;;;;;;-144.99;67.26;52391.03;5076232;28;19923;-80
2022/11/02 11:10:14;;;;;;;;;;;;;;;-144.99;68.46;52388.97;5079522;28;19945;-79
2022/11/02 11:12:44;;;;;;;;;;;;;;;-144.99;66.46;52329.88;5084294;28;19940;-80
2022/11/02 11:15:21;;;;;;;;;;;;;;;-144.99;61.86;52346.19;5089093;28;19969;-80
2022/11/02 11:17:48;;;;;;;;;;;;;;;-144.99;62.09;52407.31;5075993;28;20007;-78
2022/11/02 11:20:25;;;;;;;;;;;;;;;-144.99;63.42;52391.03;5067347;28;20025;-77
2022/11/02 11:23:07;;;;;;;;;;;;;;;-144.99;64.37;52211.66;5072016;28;20311;-78
2022/11/02 11:25:33;;;;;;;;;;;;;;;-144.99;59.72;52358.41;5070572;28;20000;-78
2022/11/02 11:28:00;;;;;;;;;;;;;;;-144.99;58.63;52382.88;5068062;28;19950;-78
2022/11/02 11:30:28;;;;;;;;;;;;;;;-144.99;60.62;52384.91;5075059;28;19994;-77
2022/11/02 11:32:55;;;;;;;;;;;;;;;-144.99;60.59;52207.59;5075975;28;20382;-76
2022/11/02 11:35:22;;;;;;;;;;;;;;;-144.99;58.43;52211.66;5080597;28;19984;-77
2022/11/02 11:37:51;;;;;;;;;;;;;;;-144.99;55.58;52166.81;5073643;28;19981;-80
2022/11/02 11:40:21;;;;;;;;;;;;;;;-144.99;55.85;52219.81;5062670;28;19988;-78
2022/11/02 11:42:49;;;;;;;;;;;;;;;-144.99;56.85;52311.53;5072929;28;20078;-78
2022/11/02 11:45:18;;;;;;;;;;;;;;;-144.99;59.41;52386.94;5075413;28;20053;-78
2022/11/02 11:47:44;;;;;;;;;;;;;;;-144.99;60.52;52393.06;5074698;28;19940;-79
2022/11/02 11:50:14;;;;;;;;;;;;;;;-144.99;61.74;52376.75;5076002;28;19968;-77
2022/11/02 11:52:40;;;;;;;;;;;;;;;-144.99;62.67;52366.56;5088096;28;19958;-77
2022/11/02 11:55:22;;;;;;;;;;;;;;;-144.99;62.72;52289.13;5087192;28;19953;-78
2022/11/02 11:58:04;;;;;;;;;;;;;;;-144.99;62.63;52317.66;5064853;28;19939;-73
2022/11/02 12:00:30;;;;;;;;;;;;;;;-144.99;60.87;52181.09;5071787;28;20081;-77
2022/11/02 12:03:02;;;;;;;;;;;;;;;-144.99;58.16;52321.72;5079112;28;20074;-76
2022/11/02 12:05:29;;;;;;;;;;;;;;;-144.99;56.02;52187.19;5080766;28;20437;-78
2022/11/02 12:08:08;;;;;;;;;;;;;;;-144.99;53.09;52268.72;5079809;28;19996;-76
2022/11/02 12:10:42;;;;;;;;;;;;;;;-144.99;52.99;52276.88;5072712;28;19940;-78
2022/11/02 12:13:17;;;;;;;;;;;;;;;-144.99;53.80;52232.03;5076123;28;20533;-77
2022/11/02 12:15:58;;;;;;;;;;;;;;;-144.99;52.75;52150.53;5077632;28;20048;-77
2022/11/02 12:18:31;;;;;;;;;;;;;;;-144.99;51.87;52152.56;5076857;28;19939;-78
2022/11/02 12:21:05;;;;;;;;;;;;;;;-144.99;50.21;52121.97;5078431;28;19954;-78
2022/11/02 12:23:37;;;;;;;;;;;;;;;-144.99;48.74;52109.75;5079235;28;19925;-77
2022/11/02 12:26:11;;;;;;;;;;;;;;;-144.99;48.13;52095.50;5079193;28;19959;-77
2022/11/02 12:28:43;;;;;;;;;;;;;;;-144.99;47.42;52134.22;5082052;28;20271;-78
2022/11/02 12:31:13;;;;;;;;;;;;;;;-144.99;45.91;52138.28;5075013;28;20003;-75
2022/11/02 12:33:47;;;;;;;;;;;;;;;-144.99;47.02;52134.22;5073965;28;20429;-76
2022/11/02 12:36:19;;;;;;;;;;;;;;;-144.99;46.50;52236.13;5075521;28;20002;-77
2022/11/02 12:38:51;;;;;;;;;;;;;;;-144.99;47.98;52187.19;5075720;28;20002;-78
2022/11/02 12:41:22;;;;;;;;;;;;;;;-144.99;47.85;52187.19;5080121;28;19946;-77
2022/11/02 12:43:53;;;;;;;;;;;;;;;-144.99;49.09;52301.34;5074923;28;19958;-77
2022/11/02 12:46:28;;;;;;;;;;;;;;;-144.99;49.66;52338.03;5071491;28;19925;-77